Centerville, Arkansas
Current Conditions -  °F | °C
As of 12:53 AM on Thursday 27 Nov 2014 (Local Time) from KRUE Reporting Station
Clear Clear  
Wind Chill: 33°   Ceiling: Unl
Heat Index: 40°   Visibility: 10mi
Dew Point: 26°   Wind: 10mph
Humidity: 58%   Direction: 310°NW
Pressure: 30.33"   Gusts: NA
Location:  35.11°N, 93.17°W
Report Text: KRUE 270653Z AUTO 31009KT 10SM CLR 04/M03 A3033 RMK AO2 SLP267 T00441033
Loading
Personal Weather Stations






























Interactive Weather Map New forecast layout! Learn more

10-Day Weather Forecast

Advertisements
Track Severe Weather on mobile